Time;durP1;ratioP1;P1;durP2;ratioP2;P2;SDS_P1;SDS_P2;PMS_P1;PMS_P2;Temp;Humidity;BMP_temperature;BMP_pressure;BME280_temperature;BME280_humidity;BME280_pressure;Samples;Min_cycle;Max_cycle;Signal;HPM_P1;HPM_P2
2023/08/02 00:02:22;;;;;;;1.30;0.70;;;19.00;99.90;;;;;;5095933;28;20202;-57
2023/08/02 00:04:48;;;;;;;1.10;0.63;;;18.90;99.90;;;;;;5095871;28;20044;-57
2023/08/02 00:07:14;;;;;;;1.50;0.57;;;18.80;99.90;;;;;;5095780;28;20059;-57
2023/08/02 00:09:40;;;;;;;1.75;0.63;;;18.70;99.90;;;;;;5095936;28;20035;-57
2023/08/02 00:12:06;;;;;;;0.60;0.55;;;18.70;99.90;;;;;;5095591;28;20077;-57
2023/08/02 00:14:32;;;;;;;1.38;0.60;;;18.70;99.90;;;;;;5095867;28;20063;-57
2023/08/02 00:16:58;;;;;;;1.60;0.75;;;18.70;99.90;;;;;;5095788;28;20025;-57
2023/08/02 00:19:24;;;;;;;1.35;0.50;;;18.70;99.90;;;;;;5095954;28;20058;-57
2023/08/02 00:21:50;;;;;;;1.33;0.60;;;18.80;99.90;;;;;;5111887;27;20060;-57
2023/08/02 00:24:16;;;;;;;0.70;0.60;;;18.80;99.90;;;;;;5136527;27;20031;-57
2023/08/02 00:26:42;;;;;;;3.42;0.60;;;18.70;99.90;;;;;;5136636;27;20521;-57
2023/08/02 00:29:08;;;;;;;1.95;0.70;;;18.60;99.90;;;;;;5136597;27;20027;-57
2023/08/02 00:31:34;;;;;;;3.53;0.63;;;18.60;99.90;;;;;;5117925;27;20471;-57
2023/08/02 00:34:00;;;;;;;0.80;0.60;;;18.60;99.90;;;;;;5136282;27;20023;-57
2023/08/02 00:36:26;;;;;;;2.97;0.77;;;18.60;99.90;;;;;;5136225;27;20023;-57
2023/08/02 00:38:52;;;;;;;1.05;0.70;;;18.50;99.90;;;;;;5117778;27;20031;-57
2023/08/02 00:41:18;;;;;;;1.80;0.60;;;18.50;99.90;;;;;;5136257;27;20030;-58
2023/08/02 00:43:46;;;;;;;1.75;0.70;;;18.60;99.90;;;;;;5136058;27;20390;-57
2023/08/02 00:46:20;;;;;;;0.80;0.70;;;18.60;99.90;;;;;;5135891;27;20038;-57
2023/08/02 00:48:46;;;;;;;1.48;0.90;;;18.60;99.90;;;;;;5136100;27;20365;-57
2023/08/02 00:51:17;;;;;;;1.20;0.60;;;18.50;99.90;;;;;;5135804;27;20023;-57
2023/08/02 00:53:44;;;;;;;0.60;0.60;;;18.50;99.90;;;;;;5136227;27;20030;-57
2023/08/02 00:56:11;;;;;;;0.63;0.60;;;18.50;99.90;;;;;;5135849;27;20027;-57
2023/08/02 00:58:37;;;;;;;0.60;0.60;;;18.50;99.90;;;;;;5135841;27;20023;-57
2023/08/02 01:01:09;;;;;;;1.95;0.90;;;18.50;99.90;;;;;;5135943;27;20384;-57
2023/08/02 01:03:40;;;;;;;1.52;0.88;;;18.50;99.90;;;;;;5117177;27;20418;-57
2023/08/02 01:06:37;;;;;;;3.85;1.20;;;18.50;99.90;;;;;;5135752;27;20096;-58
2023/08/02 01:09:27;;;;;;;1.25;0.80;;;18.50;99.90;;;;;;5116683;28;20551;-57
2023/08/02 01:12:07;;;;;;;2.38;0.80;;;18.60;99.90;;;;;;5135456;27;20029;-57
2023/08/02 01:14:36;;;;;;;1.60;0.70;;;18.70;99.90;;;;;;5135648;27;20114;-57
2023/08/02 01:17:03;;;;;;;3.75;0.90;;;18.60;99.90;;;;;;5117260;27;20491;-58
2023/08/02 01:19:31;;;;;;;1.60;0.80;;;18.60;99.90;;;;;;5135515;27;20042;-57
2023/08/02 01:21:57;;;;;;;2.10;0.95;;;18.60;99.90;;;;;;5126235;27;20031;-57
2023/08/02 01:24:34;;;;;;;2.95;1.15;;;18.60;99.90;;;;;;5096632;28;20054;-57
2023/08/02 01:27:09;;;;;;;1.52;1.00;;;18.60;99.90;;;;;;5114971;28;20027;-57
2023/08/02 01:29:40;;;;;;;2.70;0.70;;;18.70;99.90;;;;;;5096750;28;20024;-57
2023/08/02 01:32:08;;;;;;;1.90;0.82;;;18.60;99.90;;;;;;5114675;28;20113;-58
2023/08/02 01:34:34;;;;;;;4.53;1.00;;;18.70;99.90;;;;;;5114978;28;20020;-57
2023/08/02 01:37:00;;;;;;;1.27;0.85;;;18.70;99.90;;;;;;5114863;28;20611;-57
2023/08/02 01:39:26;;;;;;;0.77;0.60;;;18.70;99.90;;;;;;5096705;28;20102;-57
2023/08/02 01:41:52;;;;;;;2.65;0.90;;;18.60;99.90;;;;;;5114917;28;20373;-58
2023/08/02 01:44:18;;;;;;;1.35;1.10;;;18.60;99.90;;;;;;5114857;28;20027;-57
2023/08/02 01:46:44;;;;;;;2.10;1.10;;;18.60;99.90;;;;;;5114561;28;20032;-58
2023/08/02 01:49:10;;;;;;;1.67;0.90;;;18.50;99.90;;;;;;5114957;28;20149;-58
2023/08/02 01:51:36;;;;;;;1.42;0.90;;;18.50;99.90;;;;;;5114794;28;20103;-58
2023/08/02 01:54:02;;;;;;;2.20;1.20;;;18.50;99.90;;;;;;5096379;28;20027;-57
2023/08/02 01:56:28;;;;;;;2.63;1.30;;;18.50;99.90;;;;;;5096587;28;20174;-57
2023/08/02 01:58:54;;;;;;;2.28;1.40;;;18.50;99.90;;;;;;5096601;28;20465;-57
2023/08/02 02:01:20;;;;;;;2.85;1.25;;;18.40;99.90;;;;;;5096212;28;20059;-57
2023/08/02 02:03:46;;;;;;;3.78;1.65;;;18.40;99.90;;;;;;5096253;28;20055;-57
2023/08/02 02:06:12;;;;;;;3.60;1.27;;;18.30;99.90;;;;;;5096291;28;20032;-57
2023/08/02 02:08:38;;;;;;;2.60;1.23;;;18.30;99.90;;;;;;5096155;28;20099;-58
2023/08/02 02:11:04;;;;;;;3.83;1.23;;;18.30;99.90;;;;;;5096313;28;20124;-57
2023/08/02 02:13:31;;;;;;;3.05;1.40;;;18.40;99.90;;;;;;5114429;28;20028;-58
2023/08/02 02:15:57;;;;;;;3.00;1.70;;;18.40;99.90;;;;;;5114598;28;20511;-57
2023/08/02 02:18:23;;;;;;;2.70;1.40;;;18.40;99.90;;;;;;5096347;28;20032;-57
2023/08/02 02:20:49;;;;;;;1.52;0.93;;;18.40;99.90;;;;;;5098659;28;20043;-57
2023/08/02 02:23:15;;;;;;;2.45;1.58;;;18.40;99.90;;;;;;5138436;27;20031;-57
2023/08/02 02:25:40;;;;;;;3.03;1.50;;;18.30;99.90;;;;;;5138902;27;20124;-57
2023/08/02 02:28:06;;;;;;;4.43;1.10;;;18.30;99.90;;;;;;5120319;27;20045;-57
2023/08/02 02:30:33;;;;;;;3.95;1.00;;;18.20;99.90;;;;;;5138602;27;20033;-58
2023/08/02 02:32:59;;;;;;;4.40;1.15;;;18.20;99.90;;;;;;5120303;27;20099;-58
2023/08/02 02:35:26;;;;;;;1.80;1.23;;;18.10;99.90;;;;;;5138536;27;20032;-58
2023/08/02 02:37:52;;;;;;;3.47;1.15;;;18.10;99.90;;;;;;5138517;27;20582;-57
2023/08/02 02:40:18;;;;;;;1.67;1.23;;;18.10;99.90;;;;;;5138683;27;20027;-58
2023/08/02 02:42:44;;;;;;;2.17;1.10;;;18.10;99.90;;;;;;5138475;27;20023;-57
2023/08/02 02:45:11;;;;;;;1.98;1.33;;;18.20;99.90;;;;;;5138345;27;20023;-57
2023/08/02 02:47:37;;;;;;;3.25;1.35;;;18.10;99.90;;;;;;5138318;27;20023;-57
2023/08/02 02:50:03;;;;;;;2.83;1.38;;;18.30;99.90;;;;;;5138171;27;20101;-57
2023/08/02 02:52:32;;;;;;;2.55;1.45;;;18.30;99.90;;;;;;5119928;27;20090;-57
2023/08/02 02:54:58;;;;;;;3.17;1.60;;;18.40;99.90;;;;;;5119963;27;20023;-57
2023/08/02 02:57:24;;;;;;;3.78;1.40;;;18.40;99.90;;;;;;5119743;27;20042;-58
2023/08/02 02:59:51;;;;;;;3.97;1.60;;;18.40;99.90;;;;;;5138164;27;20030;-57
2023/08/02 03:02:17;;;;;;;2.30;1.20;;;18.40;99.90;;;;;;5138226;27;20023;-58
2023/08/02 03:04:43;;;;;;;3.83;1.10;;;18.30;99.90;;;;;;5119312;27;20071;-58
2023/08/02 03:07:09;;;;;;;4.43;1.58;;;18.20;99.90;;;;;;5138082;27;20035;-57
2023/08/02 03:09:35;;;;;;;1.55;1.10;;;18.20;99.90;;;;;;5137903;27;20038;-57
2023/08/02 03:12:01;;;;;;;2.95;1.40;;;18.30;99.90;;;;;;5137677;27;20025;-58
2023/08/02 03:14:27;;;;;;;2.95;1.52;;;18.30;99.90;;;;;;5137963;27;20019;-57
2023/08/02 03:16:53;;;;;;;1.90;1.35;;;18.30;99.90;;;;;;5137819;27;20031;-58
2023/08/02 03:19:19;;;;;;;3.40;1.95;;;18.40;99.90;;;;;;5137549;27;20038;-57
2023/08/02 03:21:45;;;;;;;3.65;1.38;;;18.30;99.90;;;;;;5130034;27;20437;-57
2023/08/02 03:24:12;;;;;;;2.65;1.20;;;18.30;99.90;;;;;;5117255;28;20039;-57
2023/08/02 03:26:38;;;;;;;2.45;1.10;;;18.20;99.90;;;;;;5116838;28;20057;-58
2023/08/02 03:29:04;;;;;;;1.40;1.20;;;18.20;99.90;;;;;;5117116;28;20140;-57
2023/08/02 03:31:29;;;;;;;2.08;1.20;;;18.20;99.90;;;;;;5116309;28;20027;-58
2023/08/02 03:33:55;;;;;;;1.88;1.20;;;18.20;99.90;;;;;;5116759;28;20388;-58
2023/08/02 03:36:21;;;;;;;3.83;1.00;;;18.20;99.90;;;;;;5116937;28;20076;-57
2023/08/02 03:38:47;;;;;;;1.65;0.93;;;18.20;99.90;;;;;;5116976;28;20606;-57
2023/08/02 03:41:13;;;;;;;2.78;1.23;;;18.20;99.90;;;;;;5116560;28;20077;-58
2023/08/02 03:43:39;;;;;;;2.90;1.10;;;18.20;99.90;;;;;;5116926;28;20032;-57
2023/08/02 03:46:05;;;;;;;3.80;1.63;;;18.30;99.90;;;;;;5116535;28;20035;-57
2023/08/02 03:48:32;;;;;;;1.73;1.27;;;18.30;99.90;;;;;;5116616;28;20055;-57
2023/08/02 03:50:58;;;;;;;1.63;1.30;;;18.30;99.90;;;;;;5116767;28;20026;-58
2023/08/02 03:53:26;;;;;;;2.40;1.40;;;18.40;99.90;;;;;;5116548;28;20054;-58
2023/08/02 03:55:52;;;;;;;1.70;1.40;;;18.50;99.90;;;;;;5116446;28;20035;-58
2023/08/02 03:58:19;;;;;;;2.83;1.50;;;18.50;99.90;;;;;;5116408;28;20032;-57
2023/08/02 04:00:45;;;;;;;3.90;1.70;;;18.40;99.90;;;;;;5116364;28;20036;-58
2023/08/02 04:03:11;;;;;;;3.88;1.80;;;18.50;99.90;;;;;;5116499;28;20057;-57
2023/08/02 04:05:38;;;;;;;8.90;2.53;;;18.60;99.90;;;;;;5116179;28;20043;-57
2023/08/02 04:08:04;;;;;;;2.63;1.50;;;18.60;99.90;;;;;;5116420;28;20027;-57
2023/08/02 04:10:34;;;;;;;6.20;2.17;;;18.50;99.90;;;;;;5116092;28;20020;-57
2023/08/02 04:13:00;;;;;;;6.57;2.47;;;18.50;99.90;;;;;;5116207;28;20058;-57
2023/08/02 04:15:26;;;;;;;8.55;2.10;;;18.50;99.90;;;;;;5115933;28;20252;-58
2023/08/02 04:17:52;;;;;;;7.72;1.80;;;18.50;99.90;;;;;;5116357;28;20489;-57
2023/08/02 04:20:18;;;;;;;3.90;1.80;;;18.50;99.90;;;;;;5116057;28;20479;-58
2023/08/02 04:22:44;;;;;;;9.00;2.78;;;18.60;99.90;;;;;;5131575;27;20102;-58
2023/08/02 04:25:09;;;;;;;9.05;2.10;;;18.60;99.90;;;;;;5136551;27;20042;-58
2023/08/02 04:27:35;;;;;;;8.43;2.00;;;18.60;99.90;;;;;;5136434;27;20515;-57
2023/08/02 04:30:01;;;;;;;5.13;2.03;;;18.60;99.90;;;;;;5136292;27;20023;-57
2023/08/02 04:32:27;;;;;;;4.60;1.70;;;18.70;99.90;;;;;;5136305;27;20031;-57
2023/08/02 04:34:53;;;;;;;3.42;1.60;;;18.80;99.90;;;;;;5136416;27;20067;-58
2023/08/02 04:37:19;;;;;;;1.60;1.15;;;18.90;99.90;;;;;;5136187;27;20497;-58
2023/08/02 04:39:45;;;;;;;6.95;2.40;;;18.90;99.90;;;;;;5136313;27;20091;-58
2023/08/02 04:42:11;;;;;;;10.35;3.10;;;18.90;99.90;;;;;;5136263;27;20027;-57
2023/08/02 04:44:37;;;;;;;8.68;3.00;;;18.80;99.90;;;;;;5135006;27;20090;-58
2023/08/02 04:47:03;;;;;;;5.85;2.15;;;18.80;99.90;;;;;;5135972;27;20056;-57
2023/08/02 04:49:29;;;;;;;5.18;2.00;;;18.90;99.90;;;;;;5136076;27;20177;-58
2023/08/02 04:51:55;;;;;;;5.45;1.48;;;18.80;99.90;;;;;;5135929;27;20055;-58
2023/08/02 04:54:21;;;;;;;7.65;1.83;;;18.80;99.90;;;;;;5136037;27;20488;-57
2023/08/02 04:56:47;;;;;;;5.55;2.35;;;18.80;99.90;;;;;;5135963;27;20139;-57
2023/08/02 04:59:13;;;;;;;3.85;2.00;;;18.70;99.90;;;;;;5135612;27;20053;-58
2023/08/02 05:01:39;;;;;;;3.45;1.73;;;18.60;99.90;;;;;;5135778;27;20035;-58
2023/08/02 05:04:08;;;;;;;3.90;1.40;;;18.60;99.90;;;;;;5136027;27;20031;-57
2023/08/02 05:06:35;;;;;;;2.35;1.65;;;18.50;99.90;;;;;;5135525;27;20035;-58
2023/08/02 05:09:04;;;;;;;3.40;1.45;;;18.60;99.90;;;;;;5135744;27;20042;-58
2023/08/02 05:11:33;;;;;;;3.50;1.90;;;18.60;99.90;;;;;;5135651;27;20031;-58
2023/08/02 05:13:59;;;;;;;2.13;1.70;;;18.70;99.90;;;;;;5135587;27;20027;-58
2023/08/02 05:16:27;;;;;;;2.75;1.77;;;18.60;99.90;;;;;;5135671;27;20196;-57
2023/08/02 05:18:52;;;;;;;2.20;1.40;;;18.60;99.90;;;;;;5135427;27;20079;-57
2023/08/02 05:21:19;;;;;;;2.08;1.60;;;18.60;99.90;;;;;;5131870;27;20050;-57
2023/08/02 05:23:45;;;;;;;8.30;2.35;;;18.60;99.90;;;;;;5115705;28;20023;-58
2023/08/02 05:26:12;;;;;;;5.93;2.13;;;18.70;99.90;;;;;;5114736;28;20019;-58
2023/08/02 05:28:39;;;;;;;2.78;1.98;;;18.60;99.90;;;;;;5114478;28;20491;-58
2023/08/02 05:31:11;;;;;;;3.20;2.10;;;18.60;99.90;;;;;;5115506;28;20507;-58
2023/08/02 05:33:38;;;;;;;5.63;2.45;;;18.60;99.90;;;;;;5114452;28;20028;-58
2023/08/02 05:36:04;;;;;;;4.80;2.80;;;18.80;99.90;;;;;;5114791;28;20048;-58
2023/08/02 05:38:30;;;;;;;8.43;3.85;;;18.90;99.90;;;;;;5114815;28;20108;-57
2023/08/02 05:41:05;;;;;;;7.28;3.50;;;18.90;99.90;;;;;;5114662;28;20027;-57
2023/08/02 05:43:31;;;;;;;10.82;4.03;;;18.90;99.90;;;;;;5114516;28;20114;-57
2023/08/02 05:45:58;;;;;;;14.63;4.70;;;19.00;99.90;;;;;;5114518;28;20019;-57
2023/08/02 05:48:24;;;;;;;14.77;4.13;;;19.10;99.90;;;;;;5096601;28;20020;-57
2023/08/02 05:50:50;;;;;;;13.00;4.30;;;19.30;99.90;;;;;;5114581;28;20308;-57
2023/08/02 05:53:16;;;;;;;13.98;3.97;;;19.40;99.90;;;;;;5114730;28;20312;-57
2023/08/02 05:55:42;;;;;;;10.65;3.90;;;19.30;99.90;;;;;;5116984;28;20020;-57
2023/08/02 05:58:08;;;;;;;11.93;4.72;;;19.40;99.90;;;;;;5118447;28;20125;-58
2023/08/02 06:00:34;;;;;;;13.45;4.22;;;19.60;99.90;;;;;;5118707;28;20526;-57
2023/08/02 06:03:00;;;;;;;6.43;2.45;;;19.80;99.90;;;;;;5118329;28;20485;-57
2023/08/02 06:05:26;;;;;;;14.32;4.07;;;19.60;99.90;;;;;;5118507;28;20431;-58
2023/08/02 06:07:52;;;;;;;11.93;3.40;;;19.60;99.90;;;;;;5118564;28;20060;-58
2023/08/02 06:10:18;;;;;;;7.07;1.90;;;19.80;99.90;;;;;;5118252;28;20112;-57
2023/08/02 06:12:44;;;;;;;4.93;2.33;;;19.80;99.90;;;;;;5118507;28;20030;-58
2023/08/02 06:15:10;;;;;;;4.75;2.40;;;19.80;99.90;;;;;;5118469;28;20032;-58
2023/08/02 06:17:36;;;;;;;10.98;2.78;;;19.90;99.90;;;;;;5118208;28;20062;-58
2023/08/02 06:20:02;;;;;;;8.80;2.58;;;20.00;99.90;;;;;;5118255;28;20031;-57
2023/08/02 06:22:29;;;;;;;9.35;2.25;;;20.10;99.90;;;;;;5118539;28;20035;-57
2023/08/02 06:24:55;;;;;;;9.00;2.70;;;20.20;99.90;;;;;;5118083;28;20036;-57
2023/08/02 06:27:20;;;;;;;7.82;2.17;;;20.30;99.90;;;;;;5117834;28;20035;-57
2023/08/02 06:29:46;;;;;;;5.38;2.00;;;20.30;99.90;;;;;;5099940;28;20023;-57
2023/08/02 06:32:12;;;;;;;3.70;1.80;;;19.90;99.90;;;;;;5117950;28;20463;-57
2023/08/02 06:34:38;;;;;;;5.90;2.15;;;19.60;99.90;;;;;;5118102;28;20032;-57
2023/08/02 06:37:04;;;;;;;8.05;2.67;;;19.70;99.90;;;;;;5118221;28;20403;-57
2023/08/02 06:39:32;;;;;;;7.25;2.30;;;19.70;99.90;;;;;;5117527;28;20026;-57
2023/08/02 06:41:58;;;;;;;5.20;2.20;;;19.50;99.90;;;;;;5117748;28;20104;-57
2023/08/02 06:44:26;;;;;;;7.00;2.60;;;19.20;99.90;;;;;;5117541;28;20051;-57
2023/08/02 06:46:51;;;;;;;6.57;2.22;;;19.40;99.90;;;;;;5117855;28;20081;-58
2023/08/02 06:49:17;;;;;;;5.97;2.40;;;19.60;99.90;;;;;;5117169;28;20020;-57
2023/08/02 06:51:43;;;;;;;6.70;2.65;;;19.30;99.90;;;;;;5117162;28;20080;-57
2023/08/02 06:54:09;;;;;;;6.88;3.03;;;19.30;99.90;;;;;;5118040;28;20049;-57
2023/08/02 06:56:35;;;;;;;7.13;2.72;;;19.40;99.90;;;;;;5118046;28;20039;-58
2023/08/02 06:59:01;;;;;;;8.80;2.97;;;19.60;99.90;;;;;;5116670;28;20023;-57
2023/08/02 07:01:27;;;;;;;5.00;2.85;;;19.70;99.90;;;;;;5117361;28;20468;-57
2023/08/02 07:03:53;;;;;;;7.20;2.53;;;19.50;99.90;;;;;;5115265;28;20110;-57
2023/08/02 07:06:20;;;;;;;5.78;2.45;;;19.60;99.90;;;;;;5115923;28;20040;-57
2023/08/02 07:08:53;;;;;;;6.00;2.30;;;19.80;99.90;;;;;;5117899;28;20038;-57
2023/08/02 07:11:19;;;;;;;8.07;4.55;;;19.90;99.90;;;;;;5117679;28;20028;-57
2023/08/02 07:13:45;;;;;;;6.53;2.65;;;20.00;99.90;;;;;;5117541;28;20667;-57
2023/08/02 07:16:11;;;;;;;2.92;1.95;;;20.10;99.90;;;;;;5117771;28;20357;-57
2023/08/02 07:18:38;;;;;;;6.60;2.83;;;20.20;99.90;;;;;;5117530;28;20028;-57
2023/08/02 07:21:09;;;;;;;10.25;2.50;;;20.20;99.90;;;;;;5118812;27;20023;-58
2023/08/02 07:23:36;;;;;;;9.48;2.85;;;20.10;99.90;;;;;;5138217;27;20031;-57
2023/08/02 07:26:03;;;;;;;4.20;2.50;;;20.00;99.90;;;;;;5138110;27;20015;-57
2023/08/02 07:28:30;;;;;;;4.10;1.38;;;20.10;99.90;;;;;;5137906;27;20027;-57
2023/08/02 07:31:09;;;;;;;4.93;1.80;;;19.80;99.90;;;;;;5138361;27;20033;-57
2023/08/02 07:33:37;;;;;;;8.32;2.90;;;19.80;99.90;;;;;;5120310;27;20084;-57
2023/08/02 07:36:04;;;;;;;3.50;1.70;;;20.00;99.90;;;;;;5138054;27;20077;-57
2023/08/02 07:38:30;;;;;;;10.35;2.55;;;20.20;99.90;;;;;;5137984;27;20034;-58
2023/08/02 07:40:56;;;;;;;6.05;2.10;;;20.30;99.90;;;;;;5138086;27;20069;-57
2023/08/02 07:43:22;;;;;;;13.93;2.53;;;20.40;99.90;;;;;;5137813;27;20028;-57
2023/08/02 07:45:48;;;;;;;6.65;2.28;;;20.40;99.90;;;;;;5137737;27;20027;-57
2023/08/02 07:48:14;;;;;;;4.57;1.08;;;20.60;99.90;;;;;;5137861;27;20019;-57
2023/08/02 07:50:40;;;;;;;10.65;6.10;;;20.10;99.90;;;;;;5137737;27;20043;-58
2023/08/02 07:53:07;;;;;;;10.25;2.40;;;20.40;99.90;;;;;;5137828;27;20024;-57
2023/08/02 07:55:36;;;;;;;5.05;1.35;;;20.50;99.90;;;;;;5137451;27;20019;-57
2023/08/02 07:58:02;;;;;;;4.30;1.75;;;20.60;99.90;;;;;;5137449;27;20027;-57
2023/08/02 08:00:28;;;;;;;7.47;1.70;;;20.60;99.90;;;;;;5137508;27;20059;-57
2023/08/02 08:02:54;;;;;;;2.47;1.40;;;20.50;99.90;;;;;;5136933;27;20023;-57
2023/08/02 08:05:20;;;;;;;4.88;2.00;;;20.50;99.90;;;;;;5136546;27;20047;-57
2023/08/02 08:07:46;;;;;;;5.38;2.38;;;20.60;99.90;;;;;;5136371;27;20181;-58
2023/08/02 08:10:12;;;;;;;9.82;2.60;;;20.70;99.90;;;;;;5136288;27;20510;-57
2023/08/02 08:12:37;;;;;;;8.70;2.00;;;20.80;99.90;;;;;;5136430;27;20027;-58
2023/08/02 08:15:05;;;;;;;7.30;2.30;;;20.80;99.90;;;;;;5136406;27;20019;-58
2023/08/02 08:17:31;;;;;;;8.80;2.03;;;21.00;99.90;;;;;;5135899;27;20468;-58
2023/08/02 08:19:57;;;;;;;4.57;1.90;;;21.10;99.90;;;;;;5136472;27;20019;-58
2023/08/02 08:22:28;;;;;;;9.40;2.55;;;21.20;99.90;;;;;;5123417;27;20492;-58
2023/08/02 08:24:55;;;;;;;3.10;1.35;;;21.30;99.90;;;;;;5115437;28;20139;-58
2023/08/02 08:27:21;;;;;;;5.32;1.50;;;21.00;99.90;;;;;;5115454;28;20146;-57
2023/08/02 08:29:47;;;;;;;6.20;1.70;;;20.80;99.90;;;;;;5115736;28;20065;-57
2023/08/02 08:32:12;;;;;;;6.32;1.80;;;21.00;99.90;;;;;;5115402;28;20415;-57
2023/08/02 08:34:38;;;;;;;9.32;2.58;;;21.00;99.90;;;;;;5115640;28;20031;-57
2023/08/02 08:37:04;;;;;;;6.32;2.25;;;21.10;99.90;;;;;;5113444;28;20028;-57
2023/08/02 08:39:30;;;;;;;2.65;1.95;;;21.20;99.90;;;;;;5115175;28;20028;-58
2023/08/02 08:41:59;;;;;;;3.17;2.00;;;21.10;99.90;;;;;;5115597;28;20030;-57
2023/08/02 08:44:25;;;;;;;2.65;1.52;;;21.20;99.90;;;;;;5115342;28;20051;-58
2023/08/02 08:46:55;;;;;;;2.83;2.05;;;21.10;99.90;;;;;;5114517;28;20034;-57
2023/08/02 08:49:21;;;;;;;4.82;2.53;;;20.80;99.90;;;;;;5115497;28;20468;-57
2023/08/02 08:51:49;;;;;;;4.78;2.20;;;20.80;99.90;;;;;;5115837;28;20042;-57
2023/08/02 08:54:20;;;;;;;3.42;2.50;;;20.90;99.90;;;;;;5115619;28;20470;-58
2023/08/02 08:56:46;;;;;;;9.82;2.53;;;21.20;99.90;;;;;;5115960;28;20073;-58
2023/08/02 08:59:14;;;;;;;7.13;2.38;;;21.60;99.90;;;;;;5115158;28;20487;-57
2023/08/02 09:01:42;;;;;;;8.38;3.47;;;21.40;99.90;;;;;;5114960;28;20111;-58
2023/08/02 09:04:08;;;;;;;12.38;3.60;;;21.70;99.90;;;;;;5115261;28;20035;-58
2023/08/02 09:06:34;;;;;;;10.80;3.85;;;22.10;99.90;;;;;;5115084;28;20035;-57
2023/08/02 09:09:00;;;;;;;4.35;2.35;;;22.30;99.90;;;;;;5114755;28;20028;-58
2023/08/02 09:11:28;;;;;;;8.88;3.67;;;22.50;99.90;;;;;;5114997;28;20465;-58
2023/08/02 09:14:15;;;;;;;5.22;2.53;;;22.60;99.90;;;;;;5114892;28;20034;-57
2023/08/02 09:16:56;;;;;;;11.13;3.53;;;22.80;99.30;;;;;;5114672;28;20367;-57
2023/08/02 09:19:24;;;;;;;7.90;2.10;;;23.10;99.60;;;;;;5114798;28;20040;-58
2023/08/02 09:22:23;;;;;;;6.88;2.60;;;23.30;98.30;;;;;;5122645;27;20035;-58
2023/08/02 09:24:49;;;;;;;7.95;2.10;;;23.70;98.60;;;;;;5090352;27;20072;-58
2023/08/02 09:27:18;;;;;;;8.32;1.92;;;24.10;98.20;;;;;;5135359;27;20022;-57
2023/08/02 09:29:45;;;;;;;4.88;1.65;;;24.50;95.80;;;;;;5134718;27;20027;-57
2023/08/02 09:32:11;;;;;;;4.38;1.60;;;24.80;88.90;;;;;;5134895;28;20030;-57
2023/08/02 09:34:43;;;;;;;6.57;2.38;;;23.60;89.30;;;;;;5135328;28;20456;-57
2023/08/02 09:37:12;;;;;;;3.08;1.90;;;23.10;91.30;;;;;;5131955;28;20028;-58
2023/08/02 09:39:47;;;;;;;4.20;2.47;;;23.30;90.80;;;;;;5114506;28;20066;-58
2023/08/02 09:42:13;;;;;;;5.57;2.47;;;24.10;90.70;;;;;;5114669;28;20039;-57
2023/08/02 09:44:41;;;;;;;2.63;1.60;;;24.20;89.30;;;;;;5114388;28;20031;-57
2023/08/02 09:47:11;;;;;;;3.63;1.65;;;24.30;88.80;;;;;;5114496;28;20027;-58
2023/08/02 09:49:40;;;;;;;3.45;1.95;;;24.90;85.00;;;;;;5114797;28;20032;-58
2023/08/02 09:52:09;;;;;;;3.92;2.03;;;25.00;82.00;;;;;;5114453;28;20491;-58
2023/08/02 09:54:38;;;;;;;6.15;1.42;;;25.20;85.20;;;;;;5114559;28;20146;-58
2023/08/02 09:57:05;;;;;;;1.50;1.40;;;25.50;79.80;;;;;;5114058;28;20024;-57
2023/08/02 09:59:33;;;;;;;2.20;1.48;;;24.70;80.20;;;;;;5113666;28;20026;-58
2023/08/02 10:02:00;;;;;;;2.58;1.35;;;24.50;80.60;;;;;;5113917;28;20055;-58
2023/08/02 10:04:27;;;;;;;4.05;2.28;;;25.30;82.20;;;;;;5113662;28;20176;-58
2023/08/02 10:07:02;;;;;;;2.30;1.40;;;25.90;78.30;;;;;;5114347;28;20032;-58
2023/08/02 10:09:36;;;;;;;5.45;1.55;;;26.60;75.10;;;;;;5114144;28;20054;-58
2023/08/02 10:12:09;;;;;;;7.32;1.70;;;26.00;75.30;;;;;;5114143;28;20055;-58
2023/08/02 10:14:36;;;;;;;2.63;1.73;;;26.00;70.90;;;;;;5114495;28;20085;-58
2023/08/02 10:17:02;;;;;;;1.75;1.40;;;26.30;74.10;;;;;;5114220;28;20023;-58
2023/08/02 10:19:34;;;;;;;1.40;1.15;;;26.00;70.50;;;;;;5114161;28;20024;-58
2023/08/02 10:22:03;;;;;;;2.03;1.45;;;25.60;72.00;;;;;;5123782;28;20038;-57
2023/08/02 10:24:29;;;;;;;4.77;1.57;;;26.10;69.60;;;;;;5116900;28;20366;-57
2023/08/02 10:26:57;;;;;;;2.22;1.50;;;26.00;68.90;;;;;;5114081;28;20028;-58
2023/08/02 10:29:28;;;;;;;5.13;1.55;;;26.40;66.00;;;;;;5114303;28;20051;-57
2023/08/02 10:31:54;;;;;;;8.07;4.57;;;26.00;68.40;;;;;;5113250;28;20419;-58
2023/08/02 10:34:43;;;;;;;3.95;1.70;;;26.60;71.60;;;;;;5113941;28;20024;-58
2023/08/02 10:37:09;;;;;;;4.40;1.98;;;26.80;69.30;;;;;;5113926;28;20161;-58
2023/08/02 10:39:54;;;;;;;6.30;2.00;;;26.10;68.90;;;;;;5113896;28;20047;-58
2023/08/02 10:42:31;;;;;;;3.60;1.52;;;27.10;71.00;;;;;;5115903;28;20039;-58
2023/08/02 10:44:56;;;;;;;4.40;1.83;;;28.10;66.10;;;;;;5117405;28;20110;-58
2023/08/02 10:47:33;;;;;;;2.63;1.63;;;28.50;67.80;;;;;;5117474;28;20111;-58
2023/08/02 10:50:00;;;;;;;5.53;1.88;;;29.10;62.30;;;;;;5117737;28;20023;-58
2023/08/02 10:52:31;;;;;;;7.68;3.50;;;28.40;59.90;;;;;;5117480;28;20019;-58
2023/08/02 10:55:17;;;;;;;4.43;2.78;;;28.20;58.60;;;;;;5117638;28;20106;-58
2023/08/02 10:57:55;;;;;;;5.60;3.17;;;27.90;59.30;;;;;;5117380;28;20103;-58
2023/08/02 11:00:26;;;;;;;5.53;2.20;;;28.50;60.90;;;;;;5117383;28;20031;-58
2023/08/02 11:02:53;;;;;;;5.53;2.00;;;28.80;55.30;;;;;;5117170;28;20075;-58
2023/08/02 11:05:43;;;;;;;3.85;1.63;;;28.90;57.20;;;;;;5117403;28;20047;-58
2023/08/02 11:08:09;;;;;;;5.53;2.40;;;29.30;54.70;;;;;;5116981;28;20032;-58
2023/08/02 11:10:55;;;;;;;3.08;1.77;;;29.30;53.10;;;;;;5117249;28;20510;-58
2023/08/02 11:13:22;;;;;;;3.50;1.52;;;29.20;55.50;;;;;;5099124;28;20152;-58
2023/08/02 11:16:03;;;;;;;4.63;2.17;;;29.70;57.90;;;;;;5115252;28;20031;-58
2023/08/02 11:18:32;;;;;;;9.43;2.35;;;29.10;55.00;;;;;;5133025;27;20032;-58
2023/08/02 11:21:09;;;;;;;2.60;1.30;;;28.80;55.70;;;;;;5117899;27;20028;-58
2023/08/02 11:23:35;;;;;;;2.72;1.60;;;29.60;55.20;;;;;;5137214;27;20027;-58
2023/08/02 11:26:15;;;;;;;5.75;1.65;;;29.60;49.90;;;;;;5137418;27;20019;-58
2023/08/02 11:28:48;;;;;;;3.67;1.60;;;28.40;54.10;;;;;;5137271;27;20023;-58
2023/08/02 11:31:15;;;;;;;3.03;1.10;;;28.50;53.70;;;;;;5137229;27;20536;-58
2023/08/02 11:33:41;;;;;;;4.75;1.60;;;28.40;52.90;;;;;;5101937;27;20027;-58
2023/08/02 11:36:08;;;;;;;2.75;1.15;;;28.50;54.90;;;;;;5137273;27;20027;-58
2023/08/02 11:38:36;;;;;;;2.55;1.35;;;29.00;51.20;;;;;;5136514;27;20031;-58
2023/08/02 11:41:02;;;;;;;3.28;1.23;;;28.00;53.20;;;;;;5116692;27;20027;-58
2023/08/02 11:43:38;;;;;;;5.35;1.45;;;28.80;53.60;;;;;;5128171;27;20019;-58
2023/08/02 11:46:21;;;;;;;4.30;1.73;;;28.80;51.10;;;;;;5136986;27;20102;-58
2023/08/02 11:48:48;;;;;;;1.45;1.25;;;28.60;52.30;;;;;;5138170;27;20028;-58
2023/08/02 11:51:15;;;;;;;3.08;1.20;;;29.10;53.40;;;;;;5137065;27;20456;-58
2023/08/02 11:53:50;;;;;;;2.72;1.30;;;28.50;52.10;;;;;;5117867;27;20076;-57
2023/08/02 11:56:16;;;;;;;3.97;1.40;;;28.40;51.10;;;;;;5137028;27;20108;-58
2023/08/02 11:58:44;;;;;;;3.08;1.83;;;28.80;52.60;;;;;;5136810;27;20133;-57
2023/08/02 12:01:13;;;;;;;2.72;1.40;;;29.60;52.80;;;;;;5137130;27;20727;-57
2023/08/02 12:04:01;;;;;;;4.57;1.52;;;28.70;52.20;;;;;;5137311;27;20024;-58
2023/08/02 12:06:43;;;;;;;1.65;1.27;;;28.70;53.00;;;;;;5133944;27;20122;-57
2023/08/02 12:09:09;;;;;;;3.90;1.77;;;28.50;52.00;;;;;;5116736;28;20369;-58
2023/08/02 12:11:35;;;;;;;2.25;1.30;;;29.00;54.00;;;;;;5116377;28;20124;-57
2023/08/02 12:14:02;;;;;;;4.53;1.58;;;28.40;53.80;;;;;;5115792;28;20480;-58
2023/08/02 12:17:00;;;;;;;2.30;1.27;;;28.70;53.30;;;;;;5116221;28;20098;-58
2023/08/02 12:19:44;;;;;;;2.83;1.92;;;28.30;53.80;;;;;;5100917;28;20035;-58
2023/08/02 12:22:10;;;;;;;2.28;1.60;;;27.80;53.30;;;;;;5127356;27;20031;-58
2023/08/02 12:24:36;;;;;;;2.97;1.70;;;28.40;54.50;;;;;;5136880;27;20118;-58
2023/08/02 12:27:16;;;;;;;4.35;1.70;;;29.00;51.40;;;;;;5136844;27;20019;-57
2023/08/02 12:29:46;;;;;;;3.83;1.55;;;29.20;53.10;;;;;;5137046;27;20026;-58
2023/08/02 12:32:26;;;;;;;5.60;1.92;;;29.60;53.00;;;;;;5136198;27;20020;-57
2023/08/02 12:34:53;;;;;;;3.33;2.55;;;30.00;49.90;;;;;;5136691;27;20086;-57
2023/08/02 12:37:19;;;;;;;2.67;1.75;;;29.20;50.90;;;;;;5135989;27;20491;-58
2023/08/02 12:39:48;;;;;;;6.78;3.22;;;29.10;51.40;;;;;;5136081;27;20023;-57
2023/08/02 12:42:13;;;;;;;2.65;2.08;;;29.00;50.80;;;;;;5135695;27;20030;-57
2023/08/02 12:44:41;;;;;;;3.35;2.03;;;28.40;50.70;;;;;;5135750;27;20479;-57
2023/08/02 12:47:07;;;;;;;5.13;1.83;;;28.60;50.90;;;;;;5135969;27;20031;-58
2023/08/02 12:49:33;;;;;;;5.00;2.20;;;28.70;51.60;;;;;;5135563;27;20502;-57
2023/08/02 12:51:59;;;;;;;3.15;1.67;;;29.40;51.90;;;;;;5135980;27;20491;-57